createdAt,value
2024-04-19T00:00:14.377Z,7.06
2024-04-19T00:02:41.067Z,7.07
2024-04-19T00:05:09.931Z,7.12
2024-04-19T00:07:36.733Z,7.14
2024-04-19T00:10:03.373Z,7.13
2024-04-19T00:12:30.071Z,7.14
2024-04-19T00:14:56.735Z,7.17
2024-04-19T00:17:23.388Z,7.19
2024-04-19T00:19:50.059Z,7.18
2024-04-19T00:22:16.702Z,7.19
2024-04-19T00:24:43.800Z,7.23
2024-04-19T00:27:10.477Z,7.21
2024-04-19T00:29:37.097Z,7.24
2024-04-19T00:32:03.854Z,7.22
2024-04-19T00:34:30.497Z,7.21
2024-04-19T00:36:57.143Z,7.20
2024-04-19T00:39:23.858Z,7.21
2024-04-19T00:41:50.473Z,7.19
2024-04-19T00:44:17.114Z,7.22
2024-04-19T00:46:43.880Z,7.20
2024-04-19T00:49:10.706Z,7.21
2024-04-19T00:51:39.386Z,7.21
2024-04-19T00:54:06.170Z,7.19
2024-04-19T00:56:33.269Z,7.19
2024-04-19T00:59:00.478Z,7.23
2024-04-19T01:01:27.927Z,7.22
2024-04-19T01:03:56.457Z,7.23
2024-04-19T01:06:23.253Z,7.23
2024-04-19T01:08:49.894Z,7.23
2024-04-19T01:11:16.566Z,7.24
2024-04-19T01:13:43.932Z,7.20
2024-04-19T01:16:10.565Z,7.23
2024-04-19T01:18:37.318Z,7.23
2024-04-19T01:21:04.268Z,7.20
2024-04-19T01:23:30.966Z,7.20
2024-04-19T01:25:58.219Z,7.20
2024-04-19T01:28:30.110Z,7.18
2024-04-19T01:30:56.877Z,7.15
2024-04-19T01:33:23.701Z,7.15
2024-04-19T01:35:50.442Z,7.12
2024-04-19T01:38:17.060Z,7.11
2024-04-19T01:40:43.701Z,7.10
2024-04-19T01:43:10.347Z,7.06
2024-04-19T01:45:37.077Z,7.07
2024-04-19T01:48:05.728Z,7.10
2024-04-19T01:50:32.410Z,7.04
2024-04-19T01:52:59.058Z,7.07
2024-04-19T01:55:25.704Z,7.07
2024-04-19T01:57:52.507Z,7.05
2024-04-19T02:00:19.244Z,7.06
2024-04-19T02:02:45.871Z,7.06
2024-04-19T02:05:13.039Z,7.06
2024-04-19T02:07:39.807Z,7.04
2024-04-19T02:10:08.446Z,7.06
2024-04-19T02:12:35.134Z,7.10
2024-04-19T02:15:01.789Z,7.13
2024-04-19T02:17:28.902Z,7.14
2024-04-19T02:19:55.642Z,7.17
2024-04-19T02:22:22.297Z,7.18
2024-04-19T02:24:49.027Z,7.19
2024-04-19T02:27:38.621Z,7.21
2024-04-19T02:30:24.473Z,7.20
2024-04-19T02:32:51.183Z,7.22
2024-04-19T02:35:17.886Z,7.23
2024-04-19T02:37:44.610Z,7.27
2024-04-19T02:40:11.310Z,7.27
2024-04-19T02:42:37.974Z,7.27
2024-04-19T02:45:05.105Z,7.30
2024-04-19T02:47:31.752Z,7.27
2024-04-19T02:49:58.378Z,7.29
2024-04-19T02:52:24.993Z,7.32
2024-04-19T02:54:51.654Z,7.35
2024-04-19T02:57:18.350Z,7.37
2024-04-19T02:59:45.124Z,7.34
2024-04-19T03:02:11.758Z,7.38
2024-04-19T03:04:39.492Z,7.40
2024-04-19T03:07:06.282Z,7.44
2024-04-19T03:09:33.074Z,7.45
2024-04-19T03:11:59.724Z,7.45
2024-04-19T03:14:28.037Z,7.51
2024-04-19T03:16:55.034Z,7.51
2024-04-19T03:19:21.780Z,7.54
2024-04-19T03:21:50.825Z,7.53
2024-04-19T03:24:17.543Z,7.53
2024-04-19T03:26:44.242Z,7.58
2024-04-19T03:29:10.954Z,7.58
2024-04-19T03:31:37.594Z,7.59
2024-04-19T03:34:04.293Z,7.63
2024-04-19T03:36:30.995Z,7.62
2024-04-19T03:38:57.670Z,7.65
2024-04-19T03:41:25.519Z,7.69
2024-04-19T03:44:10.705Z,7.71
2024-04-19T03:46:37.345Z,7.70
2024-04-19T03:49:04.037Z,7.74
2024-04-19T03:51:30.702Z,7.75
2024-04-19T03:53:57.338Z,7.75
2024-04-19T03:56:25.204Z,7.79
2024-04-19T03:58:53.774Z,7.77
2024-04-19T04:01:20.511Z,7.82
2024-04-19T04:03:47.214Z,7.82
2024-04-19T04:06:13.868Z,7.83
2024-04-19T04:08:40.518Z,7.90
2024-04-19T04:11:12.593Z,7.89
2024-04-19T04:13:42.617Z,7.91
2024-04-19T04:16:10.125Z,7.94
2024-04-19T04:18:36.916Z,7.97
2024-04-19T04:21:03.850Z,8.00
2024-04-19T04:23:32.384Z,8.01
2024-04-19T04:26:00.003Z,8.04
2024-04-19T04:28:26.871Z,8.09
2024-04-19T04:30:53.707Z,8.12
2024-04-19T04:33:21.022Z,8.21
2024-04-19T04:35:48.208Z,8.26
2024-04-19T04:38:14.942Z,8.31
2024-04-19T04:40:41.768Z,8.39
2024-04-19T04:43:08.466Z,8.44
2024-04-19T04:45:35.147Z,8.48
2024-04-19T04:48:02.076Z,8.53
2024-04-19T04:50:28.734Z,8.58
2024-04-19T04:52:57.631Z,8.62
2024-04-19T04:55:24.262Z,8.66
2024-04-19T04:57:50.984Z,8.67
2024-04-19T05:00:17.770Z,8.71
2024-04-19T05:02:44.430Z,8.71
2024-04-19T05:05:11.073Z,8.74
2024-04-19T05:07:37.725Z,8.79
2024-04-19T05:10:04.810Z,8.81
2024-04-19T05:12:31.500Z,8.82
2024-04-19T05:14:58.279Z,8.81
2024-04-19T05:17:25.063Z,8.87
2024-04-19T05:19:51.750Z,8.87
2024-04-19T05:22:18.367Z,8.88
2024-04-19T05:24:48.232Z,8.88
2024-04-19T05:27:14.950Z,8.91
2024-04-19T05:29:41.607Z,8.94
2024-04-19T05:32:08.340Z,8.94
2024-04-19T05:34:37.059Z,8.97
2024-04-19T05:37:04.203Z,9.01
2024-04-19T05:39:30.869Z,9.03
2024-04-19T05:41:58.462Z,9.02
2024-04-19T05:44:32.300Z,9.03
2024-04-19T05:47:02.401Z,9.05
2024-04-19T05:49:29.395Z,9.06
2024-04-19T05:51:56.307Z,9.06
2024-04-19T05:54:23.335Z,9.08
2024-04-19T05:56:50.020Z,9.07
2024-04-19T05:59:16.753Z,9.11
2024-04-19T06:01:46.239Z,9.07
2024-04-19T06:04:13.738Z,9.11
2024-04-19T06:06:40.541Z,9.14
2024-04-19T06:09:07.308Z,9.17
2024-04-19T06:11:34.105Z,9.19
2024-04-19T06:14:00.734Z,9.23
2024-04-19T06:16:27.437Z,9.22
2024-04-19T06:18:54.126Z,9.25
2024-04-19T06:21:20.832Z,9.29
2024-04-19T06:23:47.680Z,9.34
2024-04-19T06:26:14.321Z,9.34
2024-04-19T06:28:42.192Z,9.42
2024-04-19T06:31:13.698Z,9.52
2024-04-19T06:33:40.979Z,9.56
2024-04-19T06:36:07.897Z,9.55
2024-04-19T06:38:35.051Z,9.55
2024-04-19T06:41:01.734Z,9.53
2024-04-19T06:43:28.502Z,9.56
2024-04-19T06:45:59.778Z,9.66
2024-04-19T06:48:26.562Z,9.71
2024-04-19T06:50:53.292Z,9.77
2024-04-19T06:53:20.003Z,9.77
2024-04-19T06:55:48.701Z,9.74
2024-04-19T06:58:15.481Z,9.75
2024-04-19T07:03:13.942Z,9.74
2024-04-19T07:05:40.610Z,9.73
2024-04-19T07:08:07.413Z,9.69
2024-04-19T07:10:38.473Z,9.69
2024-04-19T07:13:05.908Z,9.64
2024-04-19T07:15:32.927Z,9.55
2024-04-19T07:18:00.434Z,9.52
2024-04-19T07:20:27.121Z,9.45
2024-04-19T07:22:55.483Z,9.31
2024-04-19T07:25:22.336Z,9.28
2024-04-19T07:27:49.103Z,9.26
2024-04-19T07:30:16.689Z,9.25
2024-04-19T07:32:43.542Z,9.18
2024-04-19T07:35:10.308Z,9.14
2024-04-19T07:37:36.967Z,9.10
2024-04-19T07:40:03.938Z,9.06
2024-04-19T07:42:34.181Z,9.03
2024-04-19T07:45:01.072Z,8.95
2024-04-19T07:47:29.320Z,8.89
2024-04-19T07:49:56.191Z,8.86
2024-04-19T07:52:25.786Z,8.90
2024-04-19T07:54:52.821Z,8.88
2024-04-19T07:57:19.617Z,8.90
2024-04-19T07:59:46.342Z,8.96
2024-04-19T08:02:13.073Z,8.95
2024-04-19T08:04:39.801Z,8.95
2024-04-19T08:07:06.501Z,8.96
2024-04-19T08:09:33.265Z,8.97
2024-04-19T08:12:00.052Z,9.05
2024-04-19T08:14:26.706Z,9.08
2024-04-19T08:16:53.330Z,9.12
2024-04-19T08:19:20.016Z,9.24
2024-04-19T08:21:46.797Z,9.36
2024-04-19T08:24:13.558Z,9.50
2024-04-19T08:26:40.243Z,9.59
2024-04-19T08:29:17.769Z,9.66
2024-04-19T08:31:49.186Z,9.65
2024-04-19T08:34:15.902Z,9.72
2024-04-19T08:36:42.839Z,9.83
2024-04-19T08:39:10.138Z,9.91
2024-04-19T08:41:37.313Z,9.94
2024-04-19T08:44:04.868Z,10.03
2024-04-19T08:46:34.605Z,10.08
2024-04-19T08:49:03.949Z,10.01
2024-04-19T08:51:44.510Z,9.87
2024-04-19T08:54:18.949Z,9.82
2024-04-19T08:56:46.713Z,9.71
2024-04-19T08:59:13.779Z,9.61
2024-04-19T09:01:40.461Z,9.53
2024-04-19T09:04:07.221Z,9.47
2024-04-19T09:06:34.802Z,9.53
2024-04-19T09:09:01.471Z,9.69
2024-04-19T09:11:28.198Z,9.85
2024-04-19T09:13:54.898Z,9.97
2024-04-19T09:16:21.611Z,10.07
2024-04-19T09:18:50.982Z,10.11
2024-04-19T09:21:19.515Z,10.21
2024-04-19T09:23:47.333Z,10.33
2024-04-19T09:26:13.956Z,10.47
2024-04-19T09:28:40.750Z,10.56
2024-04-19T09:31:07.476Z,10.72
2024-04-19T09:33:36.998Z,10.93
2024-04-19T09:36:04.794Z,11.15
2024-04-19T09:38:37.318Z,11.12
2024-04-19T09:41:07.073Z,11.01
2024-04-19T09:43:37.687Z,10.93
2024-04-19T09:46:05.264Z,10.89
2024-04-19T09:48:41.564Z,10.97
2024-04-19T09:51:14.618Z,11.06
2024-04-19T09:53:45.861Z,10.97
2024-04-19T09:56:21.350Z,11.08
2024-04-19T09:58:49.519Z,11.19
2024-04-19T10:01:16.784Z,11.09
2024-04-19T10:03:46.971Z,11.17
2024-04-19T10:06:14.492Z,11.30
2024-04-19T10:08:42.210Z,11.54
2024-04-19T10:11:09.037Z,11.74
2024-04-19T10:13:35.800Z,11.77
2024-04-19T10:16:02.525Z,11.80
2024-04-19T10:18:29.551Z,11.77
2024-04-19T10:20:56.316Z,11.79
2024-04-19T10:23:22.958Z,11.77
2024-04-19T10:25:51.007Z,11.73
2024-04-19T10:28:17.676Z,11.55
2024-04-19T10:30:45.732Z,11.36
2024-04-19T10:33:13.291Z,10.21
2024-04-19T10:35:43.152Z,9.01
2024-04-19T10:38:11.615Z,8.56
2024-04-19T10:40:38.271Z,8.32
2024-04-19T10:43:08.760Z,8.21
2024-04-19T10:45:37.150Z,8.15
2024-04-19T10:48:05.764Z,8.17
2024-04-19T10:50:32.601Z,8.18
2024-04-19T10:52:59.328Z,8.20
2024-04-19T10:55:29.126Z,8.21
2024-04-19T10:57:57.124Z,8.21
2024-04-19T11:00:24.443Z,8.23
2024-04-19T11:03:02.331Z,8.31
2024-04-19T11:05:36.850Z,8.49
2024-04-19T11:08:04.739Z,8.67
2024-04-19T11:10:31.449Z,8.62
2024-04-19T11:12:58.596Z,8.60
2024-04-19T11:15:28.930Z,8.49
2024-04-19T11:17:56.124Z,8.26
2024-04-19T11:20:23.296Z,7.83
2024-04-19T11:22:50.025Z,7.64
2024-04-19T11:25:16.999Z,7.52
2024-04-19T11:27:43.938Z,7.51
2024-04-19T11:30:11.167Z,7.54
2024-04-19T11:32:37.845Z,7.65
2024-04-19T11:35:09.449Z,7.71
2024-04-19T11:37:36.165Z,7.87
2024-04-19T11:40:02.892Z,8.10
2024-04-19T11:42:29.694Z,8.42
2024-04-19T11:44:56.393Z,8.58
2024-04-19T11:47:23.084Z,8.71
2024-04-19T11:49:49.846Z,8.81
2024-04-19T11:52:16.534Z,8.73
2024-04-19T11:54:45.026Z,8.72
2024-04-19T11:57:11.762Z,8.86
2024-04-19T11:59:38.376Z,9.08
2024-04-19T12:02:05.838Z,9.26
2024-04-19T12:04:32.500Z,9.04
2024-04-19T12:06:59.861Z,8.55
2024-04-19T12:09:26.678Z,8.26
2024-04-19T12:12:32.992Z,8.21
2024-04-19T12:15:23.949Z,8.22
2024-04-19T12:17:29.487Z,8.47
2024-04-19T12:20:00.278Z,8.71
2024-04-19T12:22:32.035Z,8.94
2024-04-19T12:25:04.041Z,8.90
2024-04-19T12:27:31.372Z,8.61
2024-04-19T12:29:58.352Z,8.22
2024-04-19T12:32:25.327Z,7.94
2024-04-19T12:34:52.016Z,7.87
2024-04-19T12:37:18.653Z,8.09
2024-04-19T12:39:45.348Z,8.39
2024-04-19T12:42:12.373Z,8.56
2024-04-19T12:44:39.234Z,8.30
2024-04-19T12:47:06.154Z,7.86
2024-04-19T12:49:32.900Z,7.37
2024-04-19T12:51:59.648Z,7.23
2024-04-19T12:54:26.445Z,7.30
2024-04-19T12:56:53.167Z,7.43
2024-04-19T12:59:19.908Z,7.66
2024-04-19T13:01:46.684Z,7.89
2024-04-19T13:04:13.427Z,8.09
2024-04-19T13:06:40.191Z,8.30
2024-04-19T13:09:06.941Z,8.56
2024-04-19T13:11:33.699Z,8.62
2024-04-19T13:14:01.249Z,8.61
2024-04-19T13:16:28.905Z,8.58
2024-04-19T13:18:55.800Z,8.37
2024-04-19T13:21:28.665Z,8.17
2024-04-19T13:23:56.473Z,8.08
2024-04-19T13:26:23.652Z,8.01
2024-04-19T13:28:56.104Z,7.92
2024-04-19T13:31:23.600Z,8.00
2024-04-19T13:33:50.486Z,8.06
2024-04-19T13:36:18.797Z,7.93
2024-04-19T13:38:46.873Z,8.03
2024-04-19T13:41:13.596Z,8.54
2024-04-19T13:43:40.253Z,8.83
2024-04-19T13:46:07.136Z,9.24
2024-04-19T13:48:39.966Z,9.72
2024-04-19T13:51:10.319Z,10.02
2024-04-19T13:53:42.825Z,10.48
2024-04-19T13:56:10.796Z,10.67
2024-04-19T13:58:43.435Z,10.86
2024-04-19T14:01:14.443Z,10.80
2024-04-19T14:03:41.616Z,10.45
2024-04-19T14:06:08.875Z,10.47
2024-04-19T14:08:36.470Z,10.11
2024-04-19T14:11:03.579Z,9.92
2024-04-19T14:13:30.417Z,9.65
2024-04-19T14:15:57.289Z,9.53
2024-04-19T14:18:24.000Z,10.12
2024-04-19T14:20:54.573Z,10.54
2024-04-19T14:23:21.242Z,10.81
2024-04-19T14:25:47.976Z,10.96
2024-04-19T14:28:14.605Z,11.22
2024-04-19T14:30:43.227Z,11.70
2024-04-19T14:33:10.365Z,11.64
2024-04-19T14:35:39.523Z,11.11
2024-04-19T14:38:06.430Z,10.40
2024-04-19T14:40:34.354Z,10.07
2024-04-19T14:43:01.631Z,9.90
2024-04-19T14:45:28.596Z,10.05
2024-04-19T14:47:55.428Z,10.46
2024-04-19T14:50:22.150Z,11.20
2024-04-19T14:52:56.344Z,11.53
2024-04-19T14:55:31.241Z,10.99
2024-04-19T14:57:58.561Z,10.51
2024-04-19T15:00:25.806Z,9.88
2024-04-19T15:02:52.840Z,8.82
2024-04-19T15:05:19.695Z,8.28
2024-04-19T15:07:47.436Z,7.99
2024-04-19T15:10:14.229Z,7.85
2024-04-19T15:12:41.054Z,7.83
2024-04-19T15:15:08.851Z,7.90
2024-04-19T15:17:35.930Z,8.43
2024-04-19T15:20:03.035Z,9.35
2024-04-19T15:22:29.742Z,9.81
2024-04-19T15:24:56.513Z,9.77
2024-04-19T15:27:23.398Z,9.81
2024-04-19T15:29:50.249Z,9.56
2024-04-19T15:32:17.068Z,9.25
2024-04-19T15:34:48.020Z,9.21
2024-04-19T15:37:15.921Z,9.03
2024-04-19T15:39:46.150Z,8.86
2024-04-19T15:42:14.266Z,8.84
2024-04-19T15:44:44.867Z,8.86
2024-04-19T15:47:13.033Z,8.72
2024-04-19T15:49:40.366Z,8.98
2024-04-19T15:52:07.047Z,8.95
2024-04-19T15:54:33.711Z,8.83
2024-04-19T15:57:00.481Z,9.13
2024-04-19T15:59:27.163Z,9.33
2024-04-19T16:01:53.830Z,9.26
2024-04-19T16:04:20.698Z,9.22
2024-04-19T16:06:47.640Z,9.01
2024-04-19T16:09:14.317Z,9.27
2024-04-19T16:11:41.023Z,9.54
2024-04-19T16:14:07.754Z,9.40
2024-04-19T16:16:34.423Z,9.85
2024-04-19T16:19:01.205Z,9.97
2024-04-19T16:21:27.887Z,9.83
2024-04-19T16:23:57.143Z,10.12
2024-04-19T16:26:23.945Z,10.04
2024-04-19T16:28:50.633Z,9.84
2024-04-19T16:31:17.365Z,9.81
2024-04-19T16:33:44.182Z,9.79
2024-04-19T16:36:11.069Z,9.85
2024-04-19T16:38:38.027Z,9.64
2024-04-19T16:41:04.885Z,9.43
2024-04-19T16:43:31.591Z,9.26
2024-04-19T16:45:58.754Z,9.14
2024-04-19T16:48:26.734Z,9.06
2024-04-19T16:50:55.258Z,8.98
2024-04-19T16:53:23.466Z,8.91
2024-04-19T16:55:50.144Z,8.85
2024-04-19T16:58:16.861Z,8.76
2024-04-19T17:00:43.699Z,8.74
2024-04-19T17:03:10.417Z,8.77
2024-04-19T17:05:37.201Z,8.78
2024-04-19T17:08:08.212Z,8.74
2024-04-19T17:10:35.493Z,8.77
2024-04-19T17:13:02.331Z,8.77
2024-04-19T17:15:29.449Z,8.72
2024-04-19T17:17:57.444Z,8.71
2024-04-19T17:20:24.380Z,8.67
2024-04-19T17:22:51.076Z,8.61
2024-04-19T17:25:17.783Z,8.38
2024-04-19T17:27:44.417Z,8.15
2024-04-19T17:30:13.912Z,8.00
2024-04-19T17:32:43.599Z,7.91
2024-04-19T17:35:12.042Z,7.84
2024-04-19T17:37:39.801Z,7.80
2024-04-19T17:40:06.994Z,7.79
2024-04-19T17:42:33.731Z,7.69
2024-04-19T17:45:00.569Z,7.64
2024-04-19T17:47:27.407Z,7.57
2024-04-19T17:49:54.133Z,7.54
2024-04-19T17:52:21.051Z,7.52
2024-04-19T17:54:48.307Z,7.50
2024-04-19T17:57:15.192Z,7.48
2024-04-19T17:59:42.602Z,7.51
2024-04-19T18:02:11.518Z,7.50
2024-04-19T18:04:39.919Z,7.49
2024-04-19T18:07:06.801Z,7.45
2024-04-19T18:09:33.557Z,7.43
2024-04-19T18:12:00.245Z,7.48
2024-04-19T18:14:26.878Z,7.48
2024-04-19T18:16:56.568Z,7.49
2024-04-19T18:19:26.868Z,7.44
2024-04-19T18:21:54.179Z,7.36
2024-04-19T18:24:27.942Z,7.33
2024-04-19T18:26:55.297Z,7.25
2024-04-19T18:29:25.395Z,7.23
2024-04-19T18:31:52.200Z,7.24
2024-04-19T18:34:20.563Z,7.23
2024-04-19T18:36:48.770Z,7.22
2024-04-19T18:39:16.362Z,7.21
2024-04-19T18:41:45.172Z,7.24
2024-04-19T18:44:12.166Z,7.27
2024-04-19T18:46:38.952Z,7.31
2024-04-19T18:49:09.697Z,7.31
2024-04-19T18:51:36.495Z,7.25
2024-04-19T18:54:03.402Z,7.22
2024-04-19T18:56:30.104Z,7.18
2024-04-19T18:58:56.735Z,7.11
2024-04-19T19:01:23.505Z,7.06
2024-04-19T19:03:50.255Z,7.00
2024-04-19T19:06:17.826Z,6.94
2024-04-19T19:08:44.551Z,6.90
2024-04-19T19:11:14.569Z,6.90
2024-04-19T19:13:44.610Z,6.88
2024-04-19T19:16:11.369Z,6.89
2024-04-19T19:18:38.327Z,6.88
2024-04-19T19:21:05.267Z,6.85
2024-04-19T19:23:32.244Z,6.82
2024-04-19T19:26:04.678Z,6.77
2024-04-19T19:28:31.529Z,6.79
2024-04-19T19:30:58.795Z,6.78
2024-04-19T19:33:25.901Z,6.79
2024-04-19T19:36:01.723Z,6.86
2024-04-19T19:38:29.783Z,6.90
2024-04-19T19:40:59.178Z,6.94
2024-04-19T19:43:30.971Z,6.98
2024-04-19T19:46:01.448Z,7.01
2024-04-19T19:48:33.653Z,7.02
2024-04-19T19:51:02.684Z,6.90
2024-04-19T19:53:29.413Z,6.80
2024-04-19T19:55:56.130Z,6.63
2024-04-19T19:58:22.860Z,6.50
2024-04-19T20:01:08.275Z,6.42
2024-04-19T20:03:53.458Z,6.34
2024-04-19T20:06:20.175Z,6.27
2024-04-19T20:08:47.116Z,6.25
2024-04-19T20:11:13.852Z,6.23
2024-04-19T20:13:40.697Z,6.21
2024-04-19T20:16:08.784Z,6.16
2024-04-19T20:18:36.096Z,6.23
2024-04-19T20:21:02.892Z,6.29
2024-04-19T20:23:30.463Z,6.30
2024-04-19T20:25:57.151Z,6.36
2024-04-19T20:28:23.847Z,6.37
2024-04-19T20:30:50.500Z,6.37
2024-04-19T20:33:17.262Z,6.39
2024-04-19T20:35:44.057Z,6.37
2024-04-19T20:38:11.086Z,6.34
2024-04-19T20:40:39.050Z,6.37
2024-04-19T20:43:15.343Z,6.35
2024-04-19T20:45:47.250Z,6.34
2024-04-19T20:48:16.076Z,6.32
2024-04-19T20:50:42.944Z,6.32
2024-04-19T20:53:09.627Z,6.33
2024-04-19T20:55:42.424Z,6.32
2024-04-19T20:58:09.171Z,6.31
2024-04-19T21:00:37.991Z,6.34
2024-04-19T21:03:04.987Z,6.34
2024-04-19T21:05:32.016Z,6.28
2024-04-19T21:07:58.716Z,6.29
2024-04-19T21:10:25.421Z,6.28
2024-04-19T21:12:53.483Z,6.24
2024-04-19T21:15:20.410Z,6.22
2024-04-19T21:17:47.078Z,6.16
2024-04-19T21:20:13.806Z,6.11
2024-04-19T21:22:40.504Z,6.13
2024-04-19T21:25:07.515Z,6.13
2024-04-19T21:27:35.171Z,6.17
2024-04-19T21:30:02.514Z,6.15
2024-04-19T21:32:30.606Z,6.19
2024-04-19T21:34:57.429Z,6.21
2024-04-19T21:37:24.045Z,6.23
2024-04-19T21:39:55.015Z,6.23
2024-04-19T21:42:22.650Z,6.25
2024-04-19T21:44:53.198Z,6.27
2024-04-19T21:47:20.399Z,6.23
2024-04-19T21:49:47.306Z,6.06
2024-04-19T21:52:14.038Z,5.95
2024-04-19T21:54:40.981Z,5.86
2024-04-19T21:57:07.849Z,5.84
2024-04-19T21:59:34.594Z,5.79
2024-04-19T22:02:01.300Z,5.78
2024-04-19T22:04:28.236Z,5.78
2024-04-19T22:06:55.130Z,5.75
2024-04-19T22:09:21.909Z,5.73
2024-04-19T22:11:48.680Z,5.71
2024-04-19T22:14:18.636Z,5.72
2024-04-19T22:16:45.315Z,5.68
2024-04-19T22:19:11.962Z,5.66
2024-04-19T22:21:40.310Z,5.59
2024-04-19T22:24:07.622Z,5.50
2024-04-19T22:26:35.433Z,5.39
2024-04-19T22:29:02.373Z,5.29
2024-04-19T22:31:29.244Z,5.25
2024-04-19T22:33:56.558Z,5.25
2024-04-19T22:36:24.101Z,5.22
2024-04-19T22:38:51.024Z,5.21
2024-04-19T22:41:17.718Z,5.25
2024-04-19T22:43:44.548Z,5.28
2024-04-19T22:46:11.419Z,5.31
2024-04-19T22:48:40.830Z,5.36
2024-04-19T22:51:07.720Z,5.37
2024-04-19T22:53:34.528Z,5.43
2024-04-19T22:56:01.212Z,5.45
2024-04-19T22:58:27.976Z,5.47
2024-04-19T23:01:07.493Z,5.48
2024-04-19T23:03:35.125Z,5.49
2024-04-19T23:06:06.622Z,5.50
2024-04-19T23:08:33.603Z,5.51
2024-04-19T23:11:00.632Z,5.52
2024-04-19T23:13:27.352Z,5.50
2024-04-19T23:15:54.106Z,5.53
2024-04-19T23:18:21.972Z,5.50
2024-04-19T23:20:58.955Z,5.54
2024-04-19T23:23:26.134Z,5.54
2024-04-19T23:26:19.118Z,5.54
2024-04-19T23:28:45.864Z,5.55
2024-04-19T23:31:12.659Z,5.55
2024-04-19T23:33:39.467Z,5.55
2024-04-19T23:36:08.000Z,5.53
2024-04-19T23:38:34.743Z,5.47
2024-04-19T23:41:01.442Z,5.41
2024-04-19T23:43:28.171Z,5.33
2024-04-19T23:45:54.850Z,5.31
2024-04-19T23:48:21.856Z,5.26
2024-04-19T23:50:48.598Z,5.27
2024-04-19T23:53:15.454Z,5.25
2024-04-19T23:55:42.317Z,5.23
2024-04-19T23:58:09.043Z,5.25
